Terminal Aerodrome Forecast
Issued by NWS Austin/San Antonio, TX

Current Version | Previous Version | Text Only | Print | Product List | Glossary On
Versions: 1 2 3 4 5 6 7 8 9 10 11 12 13 14
709
FTUS44 KEWX 200531
TAFAUS
TAF
KAUS 200531Z 2006/2112 14005KT P6SM BKN060
     FM200900 12005KT P6SM BKN012 OVC050
     FM201300 09005KT 4SM BR VCSH BKN009 OVC040
     FM201600 12007KT P6SM BKN012 OVC050
     FM201900 16009KT P6SM BKN040
     FM210600 16007KT P6SM OVC010=

USA.gov is the U.S. government's official web portal to all federal, state and local government web resources and services.